Time;durP1;ratioP1;P1;durP2;ratioP2;P2;SDS_P1;SDS_P2;PMS_P1;PMS_P2;Temp;Humidity;BMP_temperature;BMP_pressure;BME280_temperature;BME280_humidity;BME280_pressure;Samples;Min_cycle;Max_cycle;Signal;HPM_P1;HPM_P2
2022/08/16 00:00:35;;;;;;;21.37;20.33;;;;;;;21.40;100.00;100522.88;1949916;73;24619;-69
2022/08/16 00:03:08;;;;;;;22.50;21.17;;;;;;;21.26;100.00;100513.48;1949895;73;24202;-69
2022/08/16 00:05:38;;;;;;;23.30;22.00;;;;;;;21.19;100.00;100513.88;1950004;73;24109;-69
2022/08/16 00:08:08;;;;;;;22.90;21.70;;;;;;;21.13;100.00;100513.94;1949803;73;24147;-69
2022/08/16 00:10:40;;;;;;;25.57;23.97;;;;;;;21.22;100.00;100508.30;1949912;73;24712;-69
2022/08/16 00:13:12;;;;;;;28.23;26.73;;;;;;;21.08;100.00;100508.52;1949946;73;24109;-69
2022/08/16 00:15:45;;;;;;;30.87;29.20;;;;;;;20.72;100.00;100513.22;1949967;73;24116;-69
2022/08/16 00:18:17;;;;;;;32.27;30.37;;;;;;;20.50;100.00;100511.56;1949928;73;24579;-69
2022/08/16 00:20:48;;;;;;;32.87;31.07;;;;;;;20.37;100.00;100505.16;1949995;73;24137;-69
2022/08/16 00:23:19;;;;;;;34.80;32.80;;;;;;;20.33;100.00;100497.19;1949898;73;24156;-69
2022/08/16 00:25:49;;;;;;;35.00;33.07;;;;;;;20.22;100.00;100490.40;1949774;73;24234;-69
2022/08/16 00:28:20;;;;;;;36.13;34.13;;;;;;;20.31;100.00;100494.74;1949791;73;24222;-69
2022/08/16 00:30:50;;;;;;;38.37;36.20;;;;;;;20.37;100.00;100492.46;1915673;75;24143;-69
2022/08/16 00:33:21;;;;;;;40.00;37.63;;;;;;;20.12;100.00;100491.72;1946609;74;24105;-69
2022/08/16 00:35:51;;;;;;;41.93;39.63;;;;;;;20.08;100.00;100497.02;1946743;74;24117;-69
2022/08/16 00:38:21;;;;;;;41.60;39.23;;;;;;;20.05;100.00;100490.11;1946793;74;24127;-69
2022/08/16 00:40:54;;;;;;;40.43;38.03;;;;;;;20.05;100.00;100485.05;1946607;74;24556;-69
2022/08/16 00:43:26;;;;;;;40.33;38.13;;;;;;;20.17;100.00;100496.29;1945998;74;24121;-69
2022/08/16 00:48:57;;;;;;;39.83;37.57;;;;;;;20.48;100.00;100498.42;2061048;69;25924;-70
2022/08/16 00:51:28;;;;;;;39.33;37.13;;;;;;;20.44;100.00;100505.37;1938563;73;24579;-68
2022/08/16 00:54:00;;;;;;;40.67;38.17;;;;;;;20.54;100.00;100509.69;2016841;71;24126;-67
2022/08/16 00:56:32;;;;;;;41.03;38.60;;;;;;;20.63;100.00;100504.67;2016764;71;24182;-67
2022/08/16 00:59:03;;;;;;;42.97;40.37;;;;;;;20.83;100.00;100505.88;2016757;71;24134;-68
2022/08/16 01:01:34;;;;;;;43.37;40.87;;;;;;;20.81;100.00;100499.75;2016760;71;24183;-68
2022/08/16 01:04:06;;;;;;;48.47;45.57;;;;;;;20.70;100.00;100500.66;2016755;71;24126;-68
2022/08/16 01:06:38;;;;;;;48.73;45.83;;;;;;;20.68;100.00;100498.19;2016721;71;24593;-69
2022/08/16 01:09:09;;;;;;;51.93;48.83;;;;;;;20.70;100.00;100497.84;2016766;71;24127;-68
2022/08/16 01:11:41;;;;;;;55.73;52.53;;;;;;;20.70;100.00;100500.07;2016747;71;24176;-69
2022/08/16 01:14:15;;;;;;;57.73;54.43;;;;;;;20.72;100.00;100498.28;2016743;71;24265;-68
2022/08/16 01:16:48;;;;;;;59.20;55.73;;;;;;;20.73;100.00;100497.10;2016853;71;24576;-69
2022/08/16 01:19:22;;;;;;;64.57;60.73;;;;;;;20.71;100.00;100495.25;2016739;71;24141;-68
2022/08/16 01:21:57;;;;;;;68.10;64.17;;;;;;;20.82;100.00;100490.11;2016755;71;24142;-68
2022/08/16 01:24:31;;;;;;;70.90;66.77;;;;;;;20.72;100.00;100494.05;1938131;74;24121;-68
2022/08/16 01:27:05;;;;;;;74.13;69.93;;;;;;;20.75;100.00;100493.34;2016636;71;24685;-68
2022/08/16 01:32:41;;;;;;;76.37;72.03;;;;;;;20.77;100.00;100493.20;2060091;69;25947;-68
2022/08/16 01:35:14;;;;;;;78.97;74.57;;;;;;;20.61;100.00;100495.77;2026276;71;24094;-68
2022/08/16 01:37:47;;;;;;;76.07;71.33;;;;;;;20.53;100.00;100494.76;2026263;71;24184;-68
2022/08/16 01:40:20;;;;;;;76.20;71.93;;;;;;;20.69;100.00;100500.42;2025935;71;24168;-68
2022/08/16 01:42:52;;;;;;;76.60;72.20;;;;;;;20.54;100.00;100497.78;1945044;73;24119;-68
2022/08/16 01:45:23;;;;;;;79.77;75.07;;;;;;;20.59;100.00;100506.00;1985413;72;24104;-68
2022/08/16 01:47:54;;;;;;;80.17;75.57;;;;;;;20.62;100.00;100511.53;1981713;72;24622;-68
2022/08/16 01:50:24;;;;;;;80.60;75.80;;;;;;;20.59;100.00;100513.64;1981572;72;24108;-68
2022/08/16 01:52:55;;;;;;;81.00;76.13;;;;;;;20.52;100.00;100507.80;1981499;72;24098;-68
2022/08/16 01:55:26;;;;;;;80.30;75.60;;;;;;;20.51;100.00;100507.56;1981771;72;24109;-69
2022/08/16 01:57:56;;;;;;;83.20;78.20;;;;;;;20.54;100.00;100506.25;1981631;72;24186;-69
2022/08/16 02:00:27;;;;;;;81.83;76.70;;;;;;;20.33;100.00;100507.05;1981706;72;24109;-69
2022/08/16 02:02:57;;;;;;;82.57;77.67;;;;;;;20.50;100.00;100508.16;1981676;72;24117;-69
2022/08/16 02:05:28;;;;;;;82.87;77.93;;;;;;;20.50;100.00;100505.34;1981683;72;24537;-69
2022/08/16 02:07:58;;;;;;;84.83;79.50;;;;;;;20.45;100.00;100497.95;1981697;72;24194;-69
2022/08/16 02:10:29;;;;;;;85.53;80.30;;;;;;;20.41;100.00;100499.84;1981698;72;24237;-68
2022/08/16 02:13:00;;;;;;;84.50;79.47;;;;;;;20.37;100.00;100494.70;1981641;72;24637;-69
2022/08/16 02:15:32;;;;;;;86.67;81.40;;;;;;;20.42;100.00;100488.80;1981632;72;24219;-69
2022/08/16 02:18:04;;;;;;;85.57;80.37;;;;;;;20.34;100.00;100486.14;1981619;72;24117;-69
2022/08/16 02:20:37;;;;;;;86.77;81.47;;;;;;;20.25;100.00;100479.21;1981255;72;24097;-69
2022/08/16 02:23:09;;;;;;;87.53;81.93;;;;;;;20.18;100.00;100477.61;1981392;72;24597;-69
2022/08/16 02:25:40;;;;;;;83.33;78.10;;;;;;;20.29;100.00;100473.11;1981442;72;24574;-69
2022/08/16 02:28:10;;;;;;;86.03;80.40;;;;;;;20.17;100.00;100471.73;1981476;72;24151;-68
2022/08/16 02:30:41;;;;;;;87.37;82.03;;;;;;;20.21;100.00;100486.75;1947796;72;24178;-69
2022/08/16 02:33:12;;;;;;;88.13;82.87;;;;;;;20.15;100.00;100500.07;1946664;74;24110;-69
2022/08/16 02:35:43;;;;;;;86.63;81.10;;;;;;;20.27;100.00;100499.44;1946694;74;24131;-69
2022/08/16 02:38:13;;;;;;;87.77;82.27;;;;;;;20.19;100.00;100504.64;1911112;75;24126;-70
2022/08/16 02:40:43;;;;;;;89.10;83.60;;;;;;;20.24;100.00;100499.30;1894470;76;24720;-69
2022/08/16 02:43:13;;;;;;;85.80;80.40;;;;;;;20.33;100.00;100498.01;1946141;74;24122;-68
2022/08/16 02:45:44;;;;;;;84.63;79.47;;;;;;;20.33;100.00;100492.95;1945916;73;24142;-69
2022/08/16 02:48:14;;;;;;;83.03;77.93;;;;;;;20.39;100.00;100485.30;1945952;73;24620;-68
2022/08/16 02:50:45;;;;;;;86.77;81.47;;;;;;;20.41;100.00;100470.23;1945902;73;24146;-69
2022/08/16 02:53:16;;;;;;;88.00;82.63;;;;;;;20.45;100.00;100468.32;1946082;73;24179;-68
2022/08/16 02:55:47;;;;;;;84.13;79.03;;;;;;;20.47;100.00;100469.38;1946055;73;24138;-68
2022/08/16 02:58:17;;;;;;;84.63;79.23;;;;;;;20.27;100.00;100476.05;1945944;73;24142;-68
2022/08/16 03:00:47;;;;;;;83.67;78.37;;;;;;;20.17;100.00;100477.37;1946149;73;24114;-68
2022/08/16 03:03:18;;;;;;;87.27;81.87;;;;;;;20.19;100.00;100484.89;1945989;73;24154;-68
2022/08/16 03:05:50;;;;;;;86.57;81.10;;;;;;;20.33;100.00;100483.91;1945907;73;24605;-68
2022/08/16 03:08:21;;;;;;;83.57;78.53;;;;;;;20.43;100.00;100486.22;1945945;73;24138;-68
2022/08/16 03:10:51;;;;;;;81.37;76.67;;;;;;;20.34;100.00;100486.14;1945989;73;24256;-68
2022/08/16 03:13:22;;;;;;;84.20;79.03;;;;;;;20.16;100.00;100481.95;1946136;74;24157;-68
2022/08/16 03:15:53;;;;;;;81.43;76.43;;;;;;;20.00;100.00;100477.08;1945927;74;24149;-68
2022/08/16 03:18:24;;;;;;;86.17;80.63;;;;;;;19.90;100.00;100477.58;1945971;74;24126;-73
2022/08/16 03:20:55;;;;;;;83.20;77.73;;;;;;;19.95;100.00;100481.56;1945916;74;24150;-74
2022/08/16 03:23:25;;;;;;;83.37;78.17;;;;;;;19.94;100.00;100489.78;1946155;74;24198;-74
2022/08/16 03:25:55;;;;;;;85.60;80.27;;;;;;;20.12;100.00;100497.95;1945976;74;24515;-74
2022/08/16 03:28:26;;;;;;;84.27;79.00;;;;;;;20.26;100.00;100496.38;1945901;73;24141;-74
2022/08/16 03:30:56;;;;;;;81.63;76.37;;;;;;;20.21;100.00;100490.98;1945908;73;24180;-74
2022/08/16 03:33:26;;;;;;;81.17;75.97;;;;;;;20.03;100.00;100488.80;1945840;73;24729;-73
2022/08/16 03:35:58;;;;;;;80.07;74.97;;;;;;;19.88;100.00;100496.86;1945918;73;26658;-73
2022/08/16 03:38:31;;;;;;;83.03;77.70;;;;;;;19.91;100.00;100498.13;1946053;74;24278;-73
2022/08/16 03:41:02;;;;;;;81.87;76.63;;;;;;;19.93;100.00;100495.20;1945985;74;24147;-73
2022/08/16 03:43:33;;;;;;;80.97;75.60;;;;;;;19.91;100.00;100498.13;1945931;73;24174;-74
2022/08/16 03:46:04;;;;;;;80.90;75.60;;;;;;;19.91;100.00;100493.91;1945883;74;24616;-74
2022/08/16 03:48:37;;;;;;;82.97;77.37;;;;;;;19.76;100.00;100497.48;1945985;74;24681;-68
2022/08/16 03:51:11;;;;;;;83.70;78.40;;;;;;;19.84;100.00;100492.29;1945898;73;24151;-68
2022/08/16 03:53:42;;;;;;;82.97;77.67;;;;;;;19.83;100.00;100494.86;1945865;74;24221;-68
2022/08/16 03:56:13;;;;;;;84.87;79.27;;;;;;;19.75;100.00;100498.65;1945973;74;24197;-68
2022/08/16 03:58:43;;;;;;;83.07;77.67;;;;;;;19.75;100.00;100495.83;1945900;74;24721;-69
2022/08/16 04:04:12;;;;;;;82.10;76.80;;;;;;;19.59;100.00;100497.73;2060190;69;26385;-69
2022/08/16 04:06:42;;;;;;;82.23;77.13;;;;;;;19.52;100.00;100497.73;1981699;72;24106;-69
2022/08/16 04:09:12;;;;;;;83.03;77.53;;;;;;;19.49;100.00;100503.27;1981778;72;24101;-69
2022/08/16 04:11:42;;;;;;;81.73;76.43;;;;;;;19.45;100.00;100508.78;1981690;72;24093;-69
2022/08/16 04:14:13;;;;;;;80.90;75.60;;;;;;;19.52;100.00;100512.41;1981579;72;24097;-69
2022/08/16 04:16:44;;;;;;;80.83;75.43;;;;;;;19.56;100.00;100507.70;1981694;72;24189;-69
2022/08/16 04:19:14;;;;;;;82.30;76.87;;;;;;;19.65;100.00;100511.22;1981668;72;24217;-69
2022/08/16 04:21:44;;;;;;;83.57;78.13;;;;;;;19.57;100.00;100513.58;1981618;72;24145;-69
2022/08/16 04:24:15;;;;;;;79.50;74.33;;;;;;;19.55;100.00;100512.52;1981764;72;26691;-69
2022/08/16 04:26:45;;;;;;;82.70;77.20;;;;;;;19.51;100.00;100519.23;1981689;72;24142;-69
2022/08/16 04:29:16;;;;;;;79.93;74.23;;;;;;;19.59;100.00;100521.69;1968868;72;24216;-67
2022/08/16 04:31:48;;;;;;;82.93;77.63;;;;;;;19.67;100.00;100517.92;1946662;74;24565;-67
2022/08/16 04:34:18;;;;;;;81.30;76.10;;;;;;;19.80;100.00;100519.55;1911138;75;24124;-67
2022/08/16 04:36:49;;;;;;;80.97;75.67;;;;;;;19.68;100.00;100533.05;1894557;76;24141;-69
2022/08/16 04:39:19;;;;;;;83.50;78.07;;;;;;;19.56;100.00;100530.25;1946707;73;24204;-71
2022/08/16 04:41:50;;;;;;;82.60;77.23;;;;;;;19.53;100.00;100536.59;1946686;73;24256;-69
2022/08/16 04:44:20;;;;;;;82.73;77.20;;;;;;;19.59;100.00;100538.59;1946687;73;26249;-69
2022/08/16 04:46:51;;;;;;;82.10;76.53;;;;;;;19.61;100.00;100541.28;1946609;74;24654;-68
2022/08/16 04:49:21;;;;;;;79.50;74.37;;;;;;;19.66;100.00;100543.04;1946610;73;26619;-68
2022/08/16 04:51:52;;;;;;;85.53;79.70;;;;;;;19.66;100.00;100536.00;1946621;74;24572;-69
2022/08/16 04:54:22;;;;;;;83.10;77.63;;;;;;;19.71;100.00;100530.12;1946507;73;24109;-69
2022/08/16 04:56:52;;;;;;;79.53;74.30;;;;;;;19.71;100.00;100530.95;1946568;74;24223;-69
2022/08/16 04:59:22;;;;;;;84.60;79.07;;;;;;;19.55;100.00;100538.48;1946630;73;24105;-69
2022/08/16 05:01:55;;;;;;;85.23;79.63;;;;;;;19.63;100.00;100544.58;1946561;74;24117;-69
2022/08/16 05:04:25;;;;;;;80.83;75.37;;;;;;;19.64;100.00;100541.98;1946532;73;26682;-68
2022/08/16 05:06:55;;;;;;;81.33;75.90;;;;;;;19.60;100.00;100553.72;1946613;74;24694;-68
2022/08/16 05:09:26;;;;;;;80.53;75.13;;;;;;;19.77;100.00;100542.78;1946630;73;24160;-68
2022/08/16 05:11:56;;;;;;;76.87;71.67;;;;;;;19.69;100.00;100541.73;1946590;74;26649;-68
2022/08/16 05:14:26;;;;;;;79.37;73.83;;;;;;;19.61;100.00;100548.91;1946159;73;24145;-68
2022/08/16 05:16:56;;;;;;;80.57;75.07;;;;;;;19.54;100.00;100556.56;1945962;74;24154;-68
2022/08/16 05:19:27;;;;;;;82.50;76.60;;;;;;;19.61;100.00;100552.55;1946032;73;26659;-68
2022/08/16 05:21:57;;;;;;;79.00;73.60;;;;;;;19.55;100.00;100557.59;1945908;73;26626;-68
2022/08/16 05:24:28;;;;;;;81.07;75.47;;;;;;;19.58;100.00;100556.67;1946028;73;24170;-68
2022/08/16 05:26:58;;;;;;;83.27;77.57;;;;;;;19.64;100.00;100562.31;1946060;73;24134;-68
2022/08/16 05:29:29;;;;;;;85.10;79.37;;;;;;;19.75;100.00;100559.23;1945916;74;24166;-68
2022/08/16 05:32:00;;;;;;;81.37;75.87;;;;;;;19.81;100.00;100560.05;1945914;73;24139;-68
2022/08/16 05:34:30;;;;;;;86.07;80.10;;;;;;;19.91;100.00;100560.15;1946041;74;24150;-68
2022/08/16 05:37:01;;;;;;;84.30;78.40;;;;;;;20.05;100.00;100553.55;1945973;73;24697;-68
2022/08/16 05:39:31;;;;;;;84.47;78.57;;;;;;;19.97;100.00;100567.20;1945935;73;26267;-68
2022/08/16 05:42:02;;;;;;;83.93;78.03;;;;;;;20.02;100.00;100566.14;1945931;73;24150;-68
2022/08/16 05:44:32;;;;;;;87.23;81.20;;;;;;;19.94;100.00;100563.66;1945953;73;24255;-68
2022/08/16 05:47:03;;;;;;;86.87;80.77;;;;;;;19.94;100.00;100568.71;1945975;74;24135;-68
2022/08/16 05:49:34;;;;;;;86.50;80.20;;;;;;;20.06;100.00;100569.30;1946069;74;24151;-68
2022/08/16 05:52:05;;;;;;;90.67;84.47;;;;;;;20.04;100.00;100570.23;1946010;73;24225;-68
2022/08/16 05:54:35;;;;;;;88.40;82.10;;;;;;;20.15;100.00;100573.39;1946020;73;24153;-68
2022/08/16 05:57:06;;;;;;;87.70;81.90;;;;;;;20.10;100.00;100569.41;1945986;74;24224;-68
2022/08/16 05:59:37;;;;;;;90.33;83.97;;;;;;;20.09;100.00;100571.41;1945975;73;24629;-69
2022/08/16 06:02:07;;;;;;;87.37;81.37;;;;;;;20.12;100.00;100559.40;1945999;73;24142;-69
2022/08/16 06:04:38;;;;;;;90.93;84.53;;;;;;;20.15;100.00;100563.52;1945799;73;24275;-68
2022/08/16 06:07:08;;;;;;;89.37;82.73;;;;;;;20.12;100.00;100577.73;1945944;73;24609;-69
2022/08/16 06:09:39;;;;;;;93.53;86.80;;;;;;;20.15;100.00;100568.55;1945954;74;24590;-68
2022/08/16 06:12:11;;;;;;;93.03;86.53;;;;;;;20.07;100.00;100572.95;1945970;73;24309;-68
2022/08/16 06:14:41;;;;;;;88.90;82.87;;;;;;;20.14;100.00;100575.97;1946086;74;24216;-68
2022/08/16 06:17:15;;;;;;;90.77;84.20;;;;;;;20.16;100.00;100570.78;1945992;73;24607;-69
2022/08/16 06:19:44;;;;;;;91.57;84.63;;;;;;;20.12;100.00;100567.03;1945995;74;24150;-68
2022/08/16 06:22:15;;;;;;;90.77;84.47;;;;;;;20.20;100.00;100574.53;1945994;73;24138;-68
2022/08/16 06:24:45;;;;;;;90.37;83.77;;;;;;;20.27;100.00;100575.59;1945983;73;24154;-68
2022/08/16 06:27:15;;;;;;;93.93;87.50;;;;;;;20.33;100.00;100576.17;1945870;74;24113;-68
2022/08/16 06:29:45;;;;;;;92.63;86.13;;;;;;;20.23;100.00;100571.02;1945904;73;24159;-69
2022/08/16 06:32:16;;;;;;;91.40;85.20;;;;;;;20.32;100.00;100573.14;1945933;74;24134;-67
2022/08/16 06:34:46;;;;;;;91.50;85.03;;;;;;;20.31;100.00;100573.73;1946059;74;24399;-68
2022/08/16 06:37:16;;;;;;;88.90;82.63;;;;;;;20.41;100.00;100574.61;1945975;73;24222;-68
2022/08/16 06:39:46;;;;;;;90.00;83.80;;;;;;;20.42;100.00;100579.67;1945950;73;24252;-68
2022/08/16 06:42:17;;;;;;;88.30;81.80;;;;;;;20.44;100.00;100580.97;1945957;73;24190;-68
2022/08/16 06:44:47;;;;;;;92.50;86.00;;;;;;;20.58;100.00;100581.16;1945883;73;24176;-68
2022/08/16 06:50:17;;;;;;;92.47;85.90;;;;;;;20.62;100.00;100579.26;2060126;69;25991;-69
2022/08/16 06:52:48;;;;;;;89.17;82.40;;;;;;;20.55;100.00;100588.91;1981754;72;24187;-69
2022/08/16 06:55:18;;;;;;;88.63;82.30;;;;;;;20.48;100.00;100590.95;1981793;72;24182;-69
2022/08/16 06:57:48;;;;;;;86.00;80.20;;;;;;;20.56;100.00;100594.20;1981661;72;24684;-69
2022/08/16 07:00:19;;;;;;;86.33;80.43;;;;;;;20.64;100.00;100596.05;1981685;72;24619;-69
2022/08/16 07:02:51;;;;;;;87.13;81.33;;;;;;;20.78;100.00;100596.47;1981679;72;24145;-68
2022/08/16 07:05:22;;;;;;;87.50;81.53;;;;;;;20.70;100.00;100601.69;1981658;72;24105;-69
2022/08/16 07:07:52;;;;;;;88.10;82.20;;;;;;;20.71;100.00;100596.86;1981601;72;24113;-69
2022/08/16 07:10:24;;;;;;;84.60;78.93;;;;;;;20.83;100.00;100603.27;1981689;72;24653;-69
2022/08/16 07:12:55;;;;;;;86.50;80.60;;;;;;;20.98;100.00;100604.48;1981803;72;24109;-67
2022/08/16 07:15:25;;;;;;;86.43;80.37;;;;;;;21.08;100.00;100606.78;1981612;72;24105;-67
2022/08/16 07:17:55;;;;;;;87.17;81.33;;;;;;;21.34;100.00;100600.65;1981777;72;24097;-67
2022/08/16 07:20:27;;;;;;;91.10;84.63;;;;;;;21.25;100.00;100605.65;1981668;72;24109;-68
2022/08/16 07:22:58;;;;;;;91.03;84.97;;;;;;;21.31;100.00;100597.11;1981605;72;24102;-69
2022/08/16 07:25:28;;;;;;;90.17;83.93;;;;;;;21.51;100.00;100596.64;1981785;72;24174;-69
2022/08/16 07:27:58;;;;;;;86.33;80.43;;;;;;;21.73;100.00;100591.75;1981809;72;24578;-69
2022/08/16 07:30:30;;;;;;;89.53;83.60;;;;;;;21.61;100.00;100596.89;1951046;72;24675;-69
2022/08/16 07:33:01;;;;;;;86.77;81.10;;;;;;;21.70;100.00;100602.36;1911257;75;24185;-69
2022/08/16 07:35:31;;;;;;;84.77;79.23;;;;;;;21.85;100.00;100603.53;1894440;76;24622;-69
2022/08/16 07:38:02;;;;;;;89.70;83.83;;;;;;;21.89;100.00;100599.61;1946627;73;24125;-69
2022/08/16 07:40:32;;;;;;;81.90;76.70;;;;;;;21.89;100.00;100601.02;1946653;73;24191;-69
2022/08/16 07:43:02;;;;;;;85.90;80.30;;;;;;;22.23;100.00;100598.00;1946710;74;24182;-69
2022/08/16 07:45:33;;;;;;;86.30;80.53;;;;;;;22.04;100.00;100609.27;1946569;74;24110;-69
2022/08/16 07:51:02;;;;;;;81.87;76.87;;;;;;;22.06;100.00;100603.48;2029630;69;25927;-67
2022/08/16 07:53:34;;;;;;;77.12;72.05;;;;;;;22.03;100.00;100616.95;1987809;70;24136;-67
2022/08/16 07:56:05;;;;;;;77.72;73.02;;;;;;;22.07;100.00;100623.52;1993351;70;24182;-67
2022/08/16 07:58:36;;;;;;;74.97;70.35;;;;;;;22.05;100.00;100620.22;2009839;69;24187;-67
2022/08/16 08:01:07;;;;;;;75.70;70.95;;;;;;;22.04;100.00;100619.98;2003009;70;24139;-67
2022/08/16 08:06:40;;;;;;;74.40;69.67;;;;;;;22.30;100.00;100614.30;2052663;69;26405;-68
2022/08/16 08:09:10;;;;;;;76.95;72.15;;;;;;;22.30;100.00;100627.86;1999697;70;24214;-68
2022/08/16 08:14:39;;;;;;;73.40;68.60;;;;;;;22.71;100.00;100623.55;2053992;69;26196;-67
2022/08/16 08:17:09;;;;;;;74.17;69.35;;;;;;;22.71;100.00;100636.30;1939587;73;24234;-67
2022/08/16 08:19:40;;;;;;;74.45;69.62;;;;;;;22.64;100.00;100637.51;2012404;70;24158;-67
2022/08/16 08:25:26;;;;;;;70.47;66.10;;;;;;;22.88;100.00;100647.17;2013164;71;30887;-68
2022/08/16 08:30:53;;;;;;;68.35;63.28;;;;;;;22.90;100.00;100639.70;1981213;71;25981;-66
2022/08/16 08:33:23;;;;;;;63.08;58.52;;;;;;;22.74;100.00;100651.70;1990376;72;24170;-66
2022/08/16 08:35:56;;;;;;;64.47;60.40;;;;;;;23.11;100.00;100654.30;1956422;71;24260;-67
2022/08/16 08:38:28;;;;;;;60.43;56.50;;;;;;;23.03;100.00;100656.17;1961676;71;24141;-67
2022/08/16 08:43:58;;;;;;;59.20;55.40;;;;;;;22.75;100.00;100649.94;2059999;69;25968;-68
2022/08/16 08:46:31;;;;;;;60.98;56.98;;;;;;;22.79;100.00;100659.91;1981807;72;24113;-68
2022/08/16 08:49:02;;;;;;;69.85;65.40;;;;;;;22.44;100.00;100659.33;1981869;72;24158;-69
2022/08/16 08:51:32;;;;;;;73.85;68.87;;;;;;;22.36;100.00;100667.44;1981715;72;24104;-68
2022/08/16 08:54:03;;;;;;;74.35;69.65;;;;;;;22.23;100.00;100671.57;1981740;72;24173;-68
2022/08/16 08:56:36;;;;;;;81.55;76.33;;;;;;;22.33;100.00;100682.33;1981608;72;24093;-68
2022/08/16 08:59:07;;;;;;;84.97;79.53;;;;;;;22.09;100.00;100683.95;1981751;72;24105;-70
2022/08/16 09:01:38;;;;;;;82.47;77.25;;;;;;;22.03;100.00;100688.27;1981830;72;24253;-68
2022/08/16 09:04:10;;;;;;;82.05;76.75;;;;;;;22.03;100.00;100690.50;1981781;72;24109;-68
2022/08/16 09:06:40;;;;;;;83.10;77.53;;;;;;;22.27;100.00;100688.63;1981678;72;24241;-68
2022/08/16 09:09:11;;;;;;;83.75;78.47;;;;;;;22.09;100.00;100691.84;1981735;72;24110;-68
2022/08/16 09:11:43;;;;;;;84.32;78.92;;;;;;;22.13;100.00;100697.59;1981732;72;24117;-68
2022/08/16 09:14:13;;;;;;;85.10;79.67;;;;;;;22.23;100.00;100691.37;1981602;72;26237;-68
2022/08/16 09:16:44;;;;;;;85.03;79.60;;;;;;;22.27;100.00;100698.53;1981777;72;24604;-68
2022/08/16 09:19:14;;;;;;;84.00;78.60;;;;;;;22.34;100.00;100702.34;1981843;72;24559;-68
2022/08/16 09:21:48;;;;;;;81.22;76.00;;;;;;;22.19;100.00;100701.79;1981650;72;24101;-68
2022/08/16 09:24:17;;;;;;;82.12;76.95;;;;;;;22.21;100.00;100703.64;1981663;72;24093;-68
2022/08/16 09:26:48;;;;;;;79.65;74.65;;;;;;;22.19;100.00;100703.20;1981676;72;24636;-69
2022/08/16 09:29:19;;;;;;;81.02;75.90;;;;;;;22.14;100.00;100707.13;1980915;72;24139;-68
2022/08/16 09:31:50;;;;;;;84.10;78.70;;;;;;;22.25;100.00;100713.86;1979483;72;24158;-68
2022/08/16 09:34:21;;;;;;;79.10;74.03;;;;;;;22.21;100.00;100720.62;1979578;72;24658;-68
2022/08/16 09:36:51;;;;;;;77.20;72.00;;;;;;;22.04;100.00;100719.59;1979489;72;24738;-68
2022/08/16 09:39:21;;;;;;;76.50;71.70;;;;;;;22.25;100.00;100721.52;1979726;72;24131;-68
2022/08/16 09:41:54;;;;;;;78.07;73.40;;;;;;;22.24;100.00;100722.73;1979661;72;24115;-68
2022/08/16 09:44:26;;;;;;;78.17;73.02;;;;;;;22.34;100.00;100727.81;1979786;72;24124;-68
2022/08/16 09:46:57;;;;;;;74.55;69.67;;;;;;;22.24;100.00;100719.91;1979639;72;24176;-68
2022/08/16 09:49:27;;;;;;;73.77;69.10;;;;;;;22.28;100.00;100721.41;1979476;72;24111;-68
2022/08/16 09:51:57;;;;;;;77.08;72.15;;;;;;;22.30;100.00;100719.84;1979537;72;24633;-68
2022/08/16 09:57:43;;;;;;;74.70;69.92;;;;;;;22.39;100.00;100714.80;2009545;71;30888;-68
2022/08/16 10:03:12;;;;;;;73.53;68.70;;;;;;;22.51;100.00;100710.44;2059865;69;25918;-69
2022/08/16 10:05:43;;;;;;;72.57;68.17;;;;;;;22.37;100.00;100709.30;1981753;72;24609;-69
2022/08/16 10:08:15;;;;;;;73.15;68.55;;;;;;;22.16;100.00;100705.36;1981666;72;24105;-69
2022/08/16 10:13:38;;;;;;;78.67;73.67;;;;;;;22.06;100.00;100722.30;1981514;72;24800;-69
2022/08/16 10:16:12;;;;;;;77.15;72.05;;;;;;;22.11;100.00;100724.03;1981734;72;24186;-69
2022/08/16 10:18:42;;;;;;;78.63;73.17;;;;;;;22.16;100.00;100720.92;1981132;72;24677;-68
2022/08/16 10:21:15;;;;;;;79.53;74.70;;;;;;;22.17;100.00;100726.78;1981642;72;24217;-69
2022/08/16 10:23:48;;;;;;;80.95;75.62;;;;;;;22.26;100.00;100731.66;1981647;72;24140;-69
2022/08/16 10:26:18;;;;;;;81.00;75.97;;;;;;;22.26;100.00;100745.81;1981626;72;24121;-68
2022/08/16 10:28:49;;;;;;;80.62;75.32;;;;;;;22.18;100.00;100746.23;1981269;72;24139;-69
2022/08/16 10:31:20;;;;;;;81.37;75.97;;;;;;;22.11;100.00;100750.31;1979668;72;24122;-69
2022/08/16 10:33:50;;;;;;;81.08;75.32;;;;;;;22.23;100.00;100754.45;1979509;72;24201;-69
2022/08/16 10:36:21;;;;;;;82.53;77.07;;;;;;;22.45;100.00;100754.38;1979756;72;24119;-69
2022/08/16 10:38:51;;;;;;;84.67;78.87;;;;;;;22.28;100.00;100756.19;1979751;72;24122;-69
2022/08/16 10:41:22;;;;;;;84.28;78.75;;;;;;;22.11;100.00;100755.14;1979507;72;24216;-69
2022/08/16 10:43:53;;;;;;;83.90;77.97;;;;;;;21.79;100.00;100748.02;1979499;72;24111;-69
2022/08/16 10:46:23;;;;;;;82.17;76.20;;;;;;;21.97;100.00;100748.52;1979570;72;24088;-71
2022/08/16 10:48:54;;;;;;;84.52;78.75;;;;;;;22.09;100.00;100761.16;1979640;72;24140;-69
2022/08/16 10:51:25;;;;;;;85.80;80.00;;;;;;;22.28;100.00;100766.68;1979621;72;24122;-69
2022/08/16 10:53:55;;;;;;;82.75;76.85;;;;;;;22.16;100.00;100764.16;1979710;72;24196;-69
2022/08/16 10:56:26;;;;;;;87.25;81.05;;;;;;;22.21;100.00;100771.55;1979513;72;24146;-69
2022/08/16 10:58:57;;;;;;;80.45;75.10;;;;;;;22.46;100.00;100771.58;1979618;72;24649;-70
2022/08/16 11:01:28;;;;;;;77.85;72.75;;;;;;;22.24;100.00;100779.33;1979507;72;24364;-70
2022/08/16 11:04:00;;;;;;;75.65;70.95;;;;;;;22.62;100.00;100778.05;1979669;72;24569;-69
2022/08/16 11:06:31;;;;;;;76.77;71.97;;;;;;;22.61;100.00;100774.98;1979791;72;24184;-68
2022/08/16 11:09:01;;;;;;;72.50;68.30;;;;;;;22.41;100.00;100776.72;1979698;72;24127;-67
2022/08/16 11:11:32;;;;;;;76.12;71.47;;;;;;;22.19;100.00;100785.27;1979636;72;24117;-67
2022/08/16 11:14:02;;;;;;;69.87;65.57;;;;;;;22.21;100.00;100782.87;1978981;72;24131;-67
2022/08/16 11:16:33;;;;;;;68.62;64.35;;;;;;;22.36;100.00;100789.14;1979186;72;24206;-67
2022/08/16 11:19:05;;;;;;;68.07;63.87;;;;;;;22.49;100.00;100785.02;1979164;72;24136;-67
2022/08/16 11:21:36;;;;;;;68.67;64.47;;;;;;;22.25;100.00;100789.44;1979010;72;24176;-67
2022/08/16 11:24:07;;;;;;;65.80;61.90;;;;;;;22.31;100.00;100792.23;1978926;72;24111;-69
2022/08/16 11:26:38;;;;;;;67.97;63.68;;;;;;;22.27;100.00;100794.16;1978955;72;24204;-67
2022/08/16 11:29:09;;;;;;;63.92;60.12;;;;;;;22.17;100.00;100802.59;1979030;72;26195;-67
2022/08/16 11:31:42;;;;;;;62.67;59.07;;;;;;;22.68;100.00;100802.64;1979029;72;24643;-68
2022/08/16 11:34:12;;;;;;;68.72;64.70;;;;;;;22.59;100.00;100806.29;1978941;72;24088;-68
2022/08/16 11:36:42;;;;;;;66.33;62.27;;;;;;;22.51;100.00;100812.34;1979024;72;24647;-67
2022/08/16 11:39:13;;;;;;;70.17;66.02;;;;;;;22.33;100.00;100810.28;1979239;72;24132;-67
2022/08/16 11:41:43;;;;;;;71.33;67.00;;;;;;;22.06;100.00;100802.09;1979120;72;24126;-67
2022/08/16 11:44:14;;;;;;;71.53;67.12;;;;;;;21.95;100.00;100800.38;1979087;72;24228;-68
2022/08/16 11:46:44;;;;;;;70.78;66.28;;;;;;;22.04;100.00;100795.96;1979084;72;24099;-71
2022/08/16 11:49:15;;;;;;;74.03;69.12;;;;;;;21.98;100.00;100805.92;1979023;72;24092;-66
2022/08/16 11:51:45;;;;;;;77.80;73.10;;;;;;;22.08;100.00;100806.78;1978958;72;24177;-67
2022/08/16 11:54:16;;;;;;;77.78;72.80;;;;;;;22.32;100.00;100807.21;1979043;72;24132;-66
2022/08/16 11:56:47;;;;;;;81.28;76.28;;;;;;;22.19;100.00;100806.48;1979092;72;24156;-66